Aviation Digital Data Service (ADDS)

Output produced by METARs form (0042 UTC 20 April 2019)
found at http://www.aviationweather.gov/metar/data/
 
METAR text: PAFA 192353Z 18005KT 10SM FEW014 BKN024 OVC065 02/M05 A2966 RMK AO2 SLP053 60005 T00171050 10017 21022 53007
Conditions at: PAFA (FAIRBANKS , AK, US) observed 2353 UTC 19 April 2019
Temperature: 1.7°C (35°F)
Dewpoint: -5.0°C (23°F) [RH = 61%]
Pressure (altimeter): 29.66 inches Hg (1004.5 mb)
[Sea-level pressure: 1005.3 mb]
Winds: from the S (180 degrees) at 6 MPH (5 knots; 2.6 m/s)
Visibility: 10 or more miles (16+ km)
Ceiling: 2400 feet AGL
Clouds: few clouds at 1400 feet AGL
broken clouds at 2400 feet AGL
overcast cloud deck at 6500 feet AGL
Weather: no significant weather observed at this time

METAR text: PAFA 192253Z 21005KT 10SM FEW014 BKN024 OVC065 01/M04 A2966 RMK AO2 SLP051 T00111044
Conditions at: PAFA (FAIRBANKS , AK, US) observed 2253 UTC 19 April 2019
Temperature: 1.1°C (34°F)
Dewpoint: -4.4°C (24°F) [RH = 67%]
Pressure (altimeter): 29.66 inches Hg (1004.5 mb)
[Sea-level pressure: 1005.1 mb]
Winds: from the SSW (210 degrees) at 6 MPH (5 knots; 2.6 m/s)
Visibility: 10 or more miles (16+ km)
Ceiling: 2400 feet AGL
Clouds: few clouds at 1400 feet AGL
broken clouds at 2400 feet AGL
overcast cloud deck at 6500 feet AGL
Weather: no significant weather observed at this time

METAR text: PAFA 192153Z 00000KT 10SM FEW015 BKN024 OVC040 01/M04 A2965 RMK AO2 SNE23 SLP048 P0000 T00061044
Conditions at: PAFA (FAIRBANKS , AK, US) observed 2153 UTC 19 April 2019
Temperature: 0.6°C (33°F)
Dewpoint: -4.4°C (24°F) [RH = 69%]
Pressure (altimeter): 29.65 inches Hg (1004.1 mb)
[Sea-level pressure: 1004.8 mb]
Winds: calm
Visibility: 10 or more miles (16+ km)
Ceiling: 2400 feet AGL
Clouds: few clouds at 1500 feet AGL
broken clouds at 2400 feet AGL
overcast cloud deck at 4000 feet AGL
Weather: no significant weather observed at this time

METAR text: PAFA 192053Z 16005KT 6SM -SN BR SCT012 BKN026 OVC045 00/M04 A2964 RMK AO2 SLP047 P0000 60005 T00001039 51012
Conditions at: PAFA (FAIRBANKS , AK, US) observed 2053 UTC 19 April 2019
Temperature: 0.0°C (32°F)
Dewpoint: -3.9°C (25°F) [RH = 75%]
Pressure (altimeter): 29.64 inches Hg (1003.8 mb)
[Sea-level pressure: 1004.7 mb]
Winds: from the SSE (160 degrees) at 6 MPH (5 knots; 2.6 m/s)
Visibility: 6 miles (10 km)
Ceiling: 2600 feet AGL
Clouds: scattered clouds at 1200 feet AGL
broken clouds at 2600 feet AGL
overcast cloud deck at 4500 feet AGL
Weather: -SN BR  (light snow, mist)

METAR text: PAFA 192036Z 19006KT 5SM -SN BR SCT012 BKN024 OVC045 M01/M04 A2964 RMK AO2 P0000 T10061039
Conditions at: PAFA (FAIRBANKS , AK, US) observed 2036 UTC 19 April 2019
Temperature: -0.6°C (31°F)
Dewpoint: -3.9°C (25°F) [RH = 78%]
Pressure (altimeter): 29.64 inches Hg (1003.8 mb)
Winds: from the S (190 degrees) at 7 MPH (6 knots; 3.1 m/s)
Visibility: 5 miles ( 8 km)
Ceiling: 2400 feet AGL
Clouds: scattered clouds at 1200 feet AGL
broken clouds at 2400 feet AGL
overcast cloud deck at 4500 feet AGL
Weather: -SN BR  (light snow, mist)

METAR text: PAFA 192009Z 20006KT 2 1/2SM -SN BR SCT008 BKN014 OVC034 M01/M03 A2963 RMK AO2 P0000 T10111033
Conditions at: PAFA (FAIRBANKS , AK, US) observed 2009 UTC 19 April 2019
Temperature: -1.1°C (30°F)
Dewpoint: -3.3°C (26°F) [RH = 85%]
Pressure (altimeter): 29.63 inches Hg (1003.5 mb)
Winds: from the SSW (200 degrees) at 7 MPH (6 knots; 3.1 m/s)
Visibility: 2.50 miles (4.02 km)
Ceiling: 1400 feet AGL
Clouds: scattered clouds at 800 feet AGL
broken clouds at 1400 feet AGL
overcast cloud deck at 3400 feet AGL
Weather: -SN BR  (light snow, mist)

METAR text: PAFA 191953Z 20006KT 1 1/2SM -SN BR FEW006 BKN014 OVC034 M01/M04 A2963 RMK AO2 TWR VIS 2 1/2 SLP044 P0003 T10111039
Conditions at: PAFA (FAIRBANKS , AK, US) observed 1953 UTC 19 April 2019
Temperature: -1.1°C (30°F)
Dewpoint: -3.9°C (25°F) [RH = 81%]
Pressure (altimeter): 29.63 inches Hg (1003.5 mb)
[Sea-level pressure: 1004.4 mb]
Winds: from the SSW (200 degrees) at 7 MPH (6 knots; 3.1 m/s)
Visibility: 1.50 miles (2.41 km)
Ceiling: 1400 feet AGL
Clouds: few clouds at 600 feet AGL
broken clouds at 1400 feet AGL
overcast cloud deck at 3400 feet AGL
Weather: -SN BR  (light snow, mist)

METAR text: PAFA 191917Z 20005KT 1SM R02L/5000VP6000FT -SN BR BKN016 OVC030 M02/M04 A2963 RMK AO2 P0002 T10171039
Conditions at: PAFA (FAIRBANKS , AK, US) observed 1917 UTC 19 April 2019
Temperature: -1.7°C (29°F)
Dewpoint: -3.9°C (25°F) [RH = 85%]
Pressure (altimeter): 29.63 inches Hg (1003.5 mb)
Winds: from the SSW (200 degrees) at 6 MPH (5 knots; 2.6 m/s)
Visibility: 1.00 miles (1.61 km)
Ceiling: 1600 feet AGL
Clouds: broken clouds at 1600 feet AGL
overcast cloud deck at 3000 feet AGL
Weather: -SN BR  (light snow, mist)

METAR text: PAFA 191853Z 21005KT 1/2SM R02L/3500V4500FT -SN BR BKN019 OVC034 M02/M04 A2962 RMK AO2 SFC VIS 3/4 SLP040 P0002 T10221044
Conditions at: PAFA (FAIRBANKS , AK, US) observed 1853 UTC 19 April 2019
Temperature: -2.2°C (28°F)
Dewpoint: -4.4°C (24°F) [RH = 85%]
Pressure (altimeter): 29.62 inches Hg (1003.1 mb)
[Sea-level pressure: 1004.0 mb]
Winds: from the SSW (210 degrees) at 6 MPH (5 knots; 2.6 m/s)
Visibility: 0.50 miles (0.80 km)
Ceiling: 1900 feet AGL
Clouds: broken clouds at 1900 feet AGL
overcast cloud deck at 3400 feet AGL
Weather: -SN BR  (light snow, mist)

METAR text: PAFA 191753Z 21005KT 1SM R02L/4000V5500FT -SN BR BKN018 OVC031 M02/M04 A2961 RMK AO2 SLP036 P0002 60004 T10221044 11017 21022 51016
Conditions at: PAFA (FAIRBANKS , AK, US) observed 1753 UTC 19 April 2019
Temperature: -2.2°C (28°F)
Dewpoint: -4.4°C (24°F) [RH = 85%]
Pressure (altimeter): 29.61 inches Hg (1002.8 mb)
[Sea-level pressure: 1003.6 mb]
Winds: from the SSW (210 degrees) at 6 MPH (5 knots; 2.6 m/s)
Visibility: 1.00 miles (1.61 km)
Ceiling: 1800 feet AGL
Clouds: broken clouds at 1800 feet AGL
overcast cloud deck at 3100 feet AGL
Weather: -SN BR  (light snow, mist)

METAR text: PAFA 191742Z 22004KT 1 1/2SM R02L/5500V6000FT -SN BR BKN021 OVC030 M02/M04 A2961 RMK AO2 P0001 T10221044
Conditions at: PAFA (FAIRBANKS , AK, US) observed 1742 UTC 19 April 2019
Temperature: -2.2°C (28°F)
Dewpoint: -4.4°C (24°F) [RH = 85%]
Pressure (altimeter): 29.61 inches Hg (1002.8 mb)
Winds: from the SW (220 degrees) at 5 MPH (4 knots; 2.1 m/s)
Visibility: 1.50 miles (2.41 km)
Ceiling: 2100 feet AGL
Clouds: broken clouds at 2100 feet AGL
overcast cloud deck at 3000 feet AGL
Weather: -SN BR  (light snow, mist)

METAR text: PAFA 191732Z 22004KT 2SM -SN BR BKN022 BKN030 OVC040 M02/M05 A2961 RMK AO2 P0001 T10221050
Conditions at: PAFA (FAIRBANKS , AK, US) observed 1732 UTC 19 April 2019
Temperature: -2.2°C (28°F)
Dewpoint: -5.0°C (23°F) [RH = 81%]
Pressure (altimeter): 29.61 inches Hg (1002.8 mb)
Winds: from the SW (220 degrees) at 5 MPH (4 knots; 2.1 m/s)
Visibility: 2.00 miles (3.22 km)
Ceiling: 2200 feet AGL
Clouds: broken clouds at 2200 feet AGL
broken clouds at 3000 feet AGL
overcast cloud deck at 4000 feet AGL
Weather: -SN BR  (light snow, mist)

METAR text: PAFA 191653Z 21005KT 4SM -SN BR BKN026 BKN034 OVC055 M02/M05 A2960 RMK AO2 SLP032 P0000 T10221050
Conditions at: PAFA (FAIRBANKS , AK, US) observed 1653 UTC 19 April 2019
Temperature: -2.2°C (28°F)
Dewpoint: -5.0°C (23°F) [RH = 81%]
Pressure (altimeter): 29.60 inches Hg (1002.5 mb)
[Sea-level pressure: 1003.2 mb]
Winds: from the SSW (210 degrees) at 6 MPH (5 knots; 2.6 m/s)
Visibility: 4 miles ( 6 km)
Ceiling: 2600 feet AGL
Clouds: broken clouds at 2600 feet AGL
broken clouds at 3400 feet AGL
overcast cloud deck at 5500 feet AGL
Weather: -SN BR  (light snow, mist)

METAR text: PAFA 191644Z 21005KT 4SM -SN BR BKN026 BKN034 OVC055 M02/M05 A2959 RMK AO2 P0000 T10221050
Conditions at: PAFA (FAIRBANKS , AK, US) observed 1644 UTC 19 April 2019
Temperature: -2.2°C (28°F)
Dewpoint: -5.0°C (23°F) [RH = 81%]
Pressure (altimeter): 29.59 inches Hg (1002.1 mb)
Winds: from the SSW (210 degrees) at 6 MPH (5 knots; 2.6 m/s)
Visibility: 4 miles ( 6 km)
Ceiling: 2600 feet AGL
Clouds: broken clouds at 2600 feet AGL
broken clouds at 3400 feet AGL
overcast cloud deck at 5500 feet AGL
Weather: -SN BR  (light snow, mist)

METAR text: PAFA 191626Z 21003KT 2SM -SN BR BKN020 BKN028 OVC045 M02/M04 A2959 RMK AO2 P0000 T10221044
Conditions at: PAFA (FAIRBANKS , AK, US) observed 1626 UTC 19 April 2019
Temperature: -2.2°C (28°F)
Dewpoint: -4.4°C (24°F) [RH = 85%]
Pressure (altimeter): 29.59 inches Hg (1002.1 mb)
Winds: from the SSW (210 degrees) at 3 MPH (3 knots; 1.5 m/s)
Visibility: 2.00 miles (3.22 km)
Ceiling: 2000 feet AGL
Clouds: broken clouds at 2000 feet AGL
broken clouds at 2800 feet AGL
overcast cloud deck at 4500 feet AGL
Weather: -SN BR  (light snow, mist)

METAR text: PAFA 191558Z 22004KT 1 1/2SM -SN BR BKN020 OVC028 M02/M05 A2958 RMK AO2 TWR VIS 2 P0000 T10221050
Conditions at: PAFA (FAIRBANKS , AK, US) observed 1558 UTC 19 April 2019
Temperature: -2.2°C (28°F)
Dewpoint: -5.0°C (23°F) [RH = 81%]
Pressure (altimeter): 29.58 inches Hg (1001.8 mb)
Winds: from the SW (220 degrees) at 5 MPH (4 knots; 2.1 m/s)
Visibility: 1.50 miles (2.41 km)
Ceiling: 2000 feet AGL
Clouds: broken clouds at 2000 feet AGL
overcast cloud deck at 2800 feet AGL
Weather: -SN BR  (light snow, mist)

METAR text: PAFA 191553Z 21004KT 3SM -SN BR BKN020 OVC028 M02/M05 A2958 RMK AO2 SLP024 P0001 T10221050
Conditions at: PAFA (FAIRBANKS , AK, US) observed 1553 UTC 19 April 2019
Temperature: -2.2°C (28°F)
Dewpoint: -5.0°C (23°F) [RH = 81%]
Pressure (altimeter): 29.58 inches Hg (1001.8 mb)
[Sea-level pressure: 1002.4 mb]
Winds: from the SSW (210 degrees) at 5 MPH (4 knots; 2.1 m/s)
Visibility: 3 miles ( 5 km)
Ceiling: 2000 feet AGL
Clouds: broken clouds at 2000 feet AGL
overcast cloud deck at 2800 feet AGL
Weather: -SN BR  (light snow, mist)

METAR text: PAFA 191459Z 21004KT 5SM -SN BR BKN020 OVC028 M02/M04 A2956 RMK AO2 P0000 T10221044
Conditions at: PAFA (FAIRBANKS , AK, US) observed 1459 UTC 19 April 2019
Temperature: -2.2°C (28°F)
Dewpoint: -4.4°C (24°F) [RH = 85%]
Pressure (altimeter): 29.56 inches Hg (1001.1 mb)
Winds: from the SSW (210 degrees) at 5 MPH (4 knots; 2.1 m/s)
Visibility: 5 miles ( 8 km)
Ceiling: 2000 feet AGL
Clouds: broken clouds at 2000 feet AGL
overcast cloud deck at 2800 feet AGL
Weather: -SN BR  (light snow, mist)

METAR text: PAFA 191453Z 20004KT 2 1/2SM -SN BR BKN020 OVC028 M02/M04 A2956 RMK AO2 SLP020 P0000 60001 T10221044 53006
Conditions at: PAFA (FAIRBANKS , AK, US) observed 1453 UTC 19 April 2019
Temperature: -2.2°C (28°F)
Dewpoint: -4.4°C (24°F) [RH = 85%]
Pressure (altimeter): 29.56 inches Hg (1001.1 mb)
[Sea-level pressure: 1002.0 mb]
Winds: from the SSW (200 degrees) at 5 MPH (4 knots; 2.1 m/s)
Visibility: 2.50 miles (4.02 km)
Ceiling: 2000 feet AGL
Clouds: broken clouds at 2000 feet AGL
overcast cloud deck at 2800 feet AGL
Weather: -SN BR  (light snow, mist)

METAR text: PAFA 191353Z 21003KT 2SM -SN BR BKN015 OVC025 M02/M04 A2956 RMK AO2 SLP018 P0001 T10221044
Conditions at: PAFA (FAIRBANKS , AK, US) observed 1353 UTC 19 April 2019
Temperature: -2.2°C (28°F)
Dewpoint: -4.4°C (24°F) [RH = 85%]
Pressure (altimeter): 29.56 inches Hg (1001.1 mb)
[Sea-level pressure: 1001.8 mb]
Winds: from the SSW (210 degrees) at 3 MPH (3 knots; 1.5 m/s)
Visibility: 2.00 miles (3.22 km)
Ceiling: 1500 feet AGL
Clouds: broken clouds at 1500 feet AGL
overcast cloud deck at 2500 feet AGL
Weather: -SN BR  (light snow, mist)

METAR text: PAFA 191316Z 22003KT 2SM -SN BR BKN015 OVC025 M02/M04 A2955 RMK AO2 P0000 T10221044
Conditions at: PAFA (FAIRBANKS , AK, US) observed 1316 UTC 19 April 2019
Temperature: -2.2°C (28°F)
Dewpoint: -4.4°C (24°F) [RH = 85%]
Pressure (altimeter): 29.55 inches Hg (1000.8 mb)
Winds: from the SW (220 degrees) at 3 MPH (3 knots; 1.5 m/s)
Visibility: 2.00 miles (3.22 km)
Ceiling: 1500 feet AGL
Clouds: broken clouds at 1500 feet AGL
overcast cloud deck at 2500 feet AGL
Weather: -SN BR  (light snow, mist)

METAR text: PAFA 191253Z 00000KT 4SM -SN BR BKN015 OVC025 M02/M04 A2955 RMK AO2 SLP015 P0000 T10171044
Conditions at: PAFA (FAIRBANKS , AK, US) observed 1253 UTC 19 April 2019
Temperature: -1.7°C (29°F)
Dewpoint: -4.4°C (24°F) [RH = 82%]
Pressure (altimeter): 29.55 inches Hg (1000.8 mb)
[Sea-level pressure: 1001.5 mb]
Winds: calm
Visibility: 4 miles ( 6 km)
Ceiling: 1500 feet AGL
Clouds: broken clouds at 1500 feet AGL
overcast cloud deck at 2500 feet AGL
Weather: -SN BR  (light snow, mist)

METAR text: PAFA 191153Z 22003KT 6SM -SN BR BKN015 OVC025 M02/M04 A2955 RMK AO2 SLP014 P0000 60001 70008 T10171044 11011 21017 51012
Conditions at: PAFA (FAIRBANKS , AK, US) observed 1153 UTC 19 April 2019
Temperature: -1.7°C (29°F)
Dewpoint: -4.4°C (24°F) [RH = 82%]
Pressure (altimeter): 29.55 inches Hg (1000.8 mb)
[Sea-level pressure: 1001.4 mb]
Winds: from the SW (220 degrees) at 3 MPH (3 knots; 1.5 m/s)
Visibility: 6 miles (10 km)
Ceiling: 1500 feet AGL
Clouds: broken clouds at 1500 feet AGL
overcast cloud deck at 2500 feet AGL
Weather: -SN BR  (light snow, mist)

METAR text: PAFA 191053Z 21004KT 6SM -SN BR BKN015 OVC035 M02/M04 A2954 RMK AO2 SLP011 P0000 T10171039
Conditions at: PAFA (FAIRBANKS , AK, US) observed 1053 UTC 19 April 2019
Temperature: -1.7°C (29°F)
Dewpoint: -3.9°C (25°F) [RH = 85%]
Pressure (altimeter): 29.54 inches Hg (1000.4 mb)
[Sea-level pressure: 1001.1 mb]
Winds: from the SSW (210 degrees) at 5 MPH (4 knots; 2.1 m/s)
Visibility: 6 miles (10 km)
Ceiling: 1500 feet AGL
Clouds: broken clouds at 1500 feet AGL
overcast cloud deck at 3500 feet AGL
Weather: -SN BR  (light snow, mist)

METAR text: PAFA 191010Z 21004KT 6SM -SN BR BKN012 OVC036 M02/M04 A2953 RMK AO2 P0000 T10171039
Conditions at: PAFA (FAIRBANKS , AK, US) observed 1010 UTC 19 April 2019
Temperature: -1.7°C (29°F)
Dewpoint: -3.9°C (25°F) [RH = 85%]
Pressure (altimeter): 29.53 inches Hg (1000.1 mb)
Winds: from the SSW (210 degrees) at 5 MPH (4 knots; 2.1 m/s)
Visibility: 6 miles (10 km)
Ceiling: 1200 feet AGL
Clouds: broken clouds at 1200 feet AGL
overcast cloud deck at 3600 feet AGL
Weather: -SN BR  (light snow, mist)

METAR text: PAFA 190953Z 21004KT 6SM -SN BR OVC036 M02/M04 A2952 RMK AO2 SLP006 P0000 T10171039
Conditions at: PAFA (FAIRBANKS , AK, US) observed 0953 UTC 19 April 2019
Temperature: -1.7°C (29°F)
Dewpoint: -3.9°C (25°F) [RH = 85%]
Pressure (altimeter): 29.52 inches Hg (999.7 mb)
[Sea-level pressure: 1000.6 mb]
Winds: from the SSW (210 degrees) at 5 MPH (4 knots; 2.1 m/s)
Visibility: 6 miles (10 km)
Ceiling: 3600 feet AGL
Clouds: overcast cloud deck at 3600 feet AGL
Weather: -SN BR  (light snow, mist)

METAR text: PAFA 190853Z 21004KT 6SM -SN BR OVC038 M01/M03 A2951 RMK AO2 SLP002 P0000 60001 T10111033 400001033 52009
Conditions at: PAFA (FAIRBANKS , AK, US) observed 0853 UTC 19 April 2019
Temperature: -1.1°C (30°F)
Dewpoint: -3.3°C (26°F) [RH = 85%]
Pressure (altimeter): 29.51 inches Hg (999.4 mb)
[Sea-level pressure: 1000.2 mb]
Winds: from the SSW (210 degrees) at 5 MPH (4 knots; 2.1 m/s)
Visibility: 6 miles (10 km)
Ceiling: 3800 feet AGL
Clouds: overcast cloud deck at 3800 feet AGL
Weather: -SN BR  (light snow, mist)

METAR text: PAFA 190753Z VRB03KT 6SM -SN BR OVC040 M01/M03 A2950 RMK AO2 SLP999 P0000 T10111033
Conditions at: PAFA (FAIRBANKS , AK, US) observed 0753 UTC 19 April 2019
Temperature: -1.1°C (30°F)
Dewpoint: -3.3°C (26°F) [RH = 85%]
Pressure (altimeter): 29.50 inches Hg (999.1 mb)
[Sea-level pressure:  999.9 mb]
Winds: variable direction winds at 3 MPH (3 knots; 1.5 m/s)
Visibility: 6 miles (10 km)
Ceiling: 4000 feet AGL
Clouds: overcast cloud deck at 4000 feet AGL
Weather: -SN BR  (light snow, mist)

METAR text: PAFA 190653Z 21004KT 6SM -SN BR OVC040 M01/M03 A2949 RMK AO2 SLP997 P0001 T10111033
Conditions at: PAFA (FAIRBANKS , AK, US) observed 0653 UTC 19 April 2019
Temperature: -1.1°C (30°F)
Dewpoint: -3.3°C (26°F) [RH = 85%]
Pressure (altimeter): 29.49 inches Hg (998.7 mb)
[Sea-level pressure:  999.7 mb]
Winds: from the SSW (210 degrees) at 5 MPH (4 knots; 2.1 m/s)
Visibility: 6 miles (10 km)
Ceiling: 4000 feet AGL
Clouds: overcast cloud deck at 4000 feet AGL
Weather: -SN BR  (light snow, mist)

METAR text: PAFA 190608Z 22004KT 3SM -SN BR OVC033 M01/M03 A2949 RMK AO2 P0001 T10111028
Conditions at: PAFA (FAIRBANKS , AK, US) observed 0608 UTC 19 April 2019
Temperature: -1.1°C (30°F)
Dewpoint: -2.8°C (27°F) [RH = 88%]
Pressure (altimeter): 29.49 inches Hg (998.7 mb)
Winds: from the SW (220 degrees) at 5 MPH (4 knots; 2.1 m/s)
Visibility: 3 miles ( 5 km)
Ceiling: 3300 feet AGL
Clouds: overcast cloud deck at 3300 feet AGL
Weather: -SN BR  (light snow, mist)

METAR text: PAFA 190553Z 22003KT 2 1/2SM -SN BR OVC025 M01/M03 A2948 RMK AO2 SLP993 P0000 60000 T10111028 10000 21011 53010
Conditions at: PAFA (FAIRBANKS , AK, US) observed 0553 UTC 19 April 2019
Temperature: -1.1°C (30°F)
Dewpoint: -2.8°C (27°F) [RH = 88%]
Pressure (altimeter): 29.48 inches Hg (998.4 mb)
[Sea-level pressure:  999.3 mb]
Winds: from the SW (220 degrees) at 3 MPH (3 knots; 1.5 m/s)
Visibility: 2.50 miles (4.02 km)
Ceiling: 2500 feet AGL
Clouds: overcast cloud deck at 2500 feet AGL
Weather: -SN BR  (light snow, mist)

METAR text: PAFA 190549Z 23004KT 2 1/2SM -SN BR OVC021 M01/M03 A2948 RMK AO2 P0000
Conditions at: PAFA (FAIRBANKS , AK, US) observed 0549 UTC 19 April 2019
Temperature: -1.0°C (30°F)
Dewpoint: -3.0°C (27°F) [RH = 86%]
Pressure (altimeter): 29.48 inches Hg (998.4 mb)
Winds: from the SW (230 degrees) at 5 MPH (4 knots; 2.1 m/s)
Visibility: 2.50 miles (4.02 km)
Ceiling: 2100 feet AGL
Clouds: overcast cloud deck at 2100 feet AGL
Weather: -SN BR  (light snow, mist)

METAR text: PAFA 190538Z COR 21003KT 2SM -SN BR OVC023 M01/M03 A2948 RMK AO2 P0000 T10111028
Conditions at: PAFA (FAIRBANKS , AK, US) observed 0538 UTC 19 April 2019
Temperature: -1.1°C (30°F)
Dewpoint: -2.8°C (27°F) [RH = 88%]
Pressure (altimeter): 29.48 inches Hg (998.4 mb)
Winds: from the SSW (210 degrees) at 3 MPH (3 knots; 1.5 m/s)
Visibility: 2.00 miles (3.22 km)
Ceiling: 2300 feet AGL
Clouds: overcast cloud deck at 2300 feet AGL
Weather: -SN BR  (light snow, mist)

METAR text: PAFA 190525Z 21004KT 1 3/4SM -SN BR OVC027 M01/M03 A2948 RMK AO2 P0000 T10111028
Conditions at: PAFA (FAIRBANKS , AK, US) observed 0525 UTC 19 April 2019
Temperature: -1.1°C (30°F)
Dewpoint: -2.8°C (27°F) [RH = 88%]
Pressure (altimeter): 29.48 inches Hg (998.4 mb)
Winds: from the SSW (210 degrees) at 5 MPH (4 knots; 2.1 m/s)
Visibility: 1.75 miles (2.82 km)
Ceiling: 2700 feet AGL
Clouds: overcast cloud deck at 2700 feet AGL
Weather: -SN BR  (light snow, mist)

METAR text: PAFA 190517Z 21004KT 2SM -SN BR OVC027 M01/M03 A2948 RMK AO2 P0000 T10111028
Conditions at: PAFA (FAIRBANKS , AK, US) observed 0517 UTC 19 April 2019
Temperature: -1.1°C (30°F)
Dewpoint: -2.8°C (27°F) [RH = 88%]
Pressure (altimeter): 29.48 inches Hg (998.4 mb)
Winds: from the SSW (210 degrees) at 5 MPH (4 knots; 2.1 m/s)
Visibility: 2.00 miles (3.22 km)
Ceiling: 2700 feet AGL
Clouds: overcast cloud deck at 2700 feet AGL
Weather: -SN BR  (light snow, mist)

METAR text: PAFA 190453Z 20004KT 5SM -SN BR BKN021 OVC030 M01/M03 A2947 RMK AO2 SLP988 VIS LWR N-NE SW P0000 T10061033
Conditions at: PAFA (FAIRBANKS , AK, US) observed 0453 UTC 19 April 2019
Temperature: -0.6°C (31°F)
Dewpoint: -3.3°C (26°F) [RH = 82%]
Pressure (altimeter): 29.47 inches Hg (998.1 mb)
[Sea-level pressure:  998.8 mb]
Winds: from the SSW (200 degrees) at 5 MPH (4 knots; 2.1 m/s)
Visibility: 5 miles ( 8 km)
Ceiling: 2100 feet AGL
Clouds: broken clouds at 2100 feet AGL
overcast cloud deck at 3000 feet AGL
Weather: -SN BR  (light snow, mist)

METAR text: PAFA 190353Z 21004KT 7SM -SN BKN021 BKN032 OVC055 M01/M04 A2946 RMK AO2 SNB47 SLP985 VIS LWR N-NE P0000 T10061039
Conditions at: PAFA (FAIRBANKS , AK, US) observed 0353 UTC 19 April 2019
Temperature: -0.6°C (31°F)
Dewpoint: -3.9°C (25°F) [RH = 78%]
Pressure (altimeter): 29.46 inches Hg (997.7 mb)
[Sea-level pressure:  998.5 mb]
Winds: from the SSW (210 degrees) at 5 MPH (4 knots; 2.1 m/s)
Visibility: 7 miles (11 km)
Ceiling: 2100 feet AGL
Clouds: broken clouds at 2100 feet AGL
broken clouds at 3200 feet AGL
overcast cloud deck at 5500 feet AGL
Weather: -SN  (light snow)

METAR text: PAFA 190347Z 23003KT 7SM -SN BKN021 BKN032 OVC055 M01/M04 A2946 RMK AO2 SNB47 VIS LWR N-NE P0000
Conditions at: PAFA (FAIRBANKS , AK, US) observed 0347 UTC 19 April 2019
Temperature: -1.0°C (30°F)
Dewpoint: -4.0°C (25°F) [RH = 80%]
Pressure (altimeter): 29.46 inches Hg (997.7 mb)
Winds: from the SW (230 degrees) at 3 MPH (3 knots; 1.5 m/s)
Visibility: 7 miles (11 km)
Ceiling: 2100 feet AGL
Clouds: broken clouds at 2100 feet AGL
broken clouds at 3200 feet AGL
overcast cloud deck at 5500 feet AGL
Weather: -SN  (light snow)

METAR text: PAFA 190253Z 21004KT 10SM SCT021 BKN032 OVC055 00/M04 A2945 RMK AO2 SLP983 60000 T00001039 55002
Conditions at: PAFA (FAIRBANKS , AK, US) observed 0253 UTC 19 April 2019
Temperature: 0.0°C (32°F)
Dewpoint: -3.9°C (25°F) [RH = 75%]
Pressure (altimeter): 29.45 inches Hg (997.4 mb)
[Sea-level pressure:  998.3 mb]
Winds: from the SSW (210 degrees) at 5 MPH (4 knots; 2.1 m/s)
Visibility: 10 or more miles (16+ km)
Ceiling: 3200 feet AGL
Clouds: scattered clouds at 2100 feet AGL
broken clouds at 3200 feet AGL
overcast cloud deck at 5500 feet AGL
Weather: no significant weather observed at this time

METAR text: PAFA 190153Z 24006KT 10SM SCT023 BKN037 OVC055 00/M04 A2945 RMK AO2 SNE45 SLP981 PRSNT WX VCSH NE P0000 T00001039
Conditions at: PAFA (FAIRBANKS , AK, US) observed 0153 UTC 19 April 2019
Temperature: 0.0°C (32°F)
Dewpoint: -3.9°C (25°F) [RH = 75%]
Pressure (altimeter): 29.45 inches Hg (997.4 mb)
[Sea-level pressure:  998.1 mb]
Winds: from the WSW (240 degrees) at 7 MPH (6 knots; 3.1 m/s)
Visibility: 10 or more miles (16+ km)
Ceiling: 3700 feet AGL
Clouds: scattered clouds at 2300 feet AGL
broken clouds at 3700 feet AGL
overcast cloud deck at 5500 feet AGL
Weather: no significant weather observed at this time

METAR text: PAFA 190136Z 21005KT 7SM -SN SCT023 BKN037 OVC055 00/M04 A2945 RMK AO2 P0000 T00001039
Conditions at: PAFA (FAIRBANKS , AK, US) observed 0136 UTC 19 April 2019
Temperature: 0.0°C (32°F)
Dewpoint: -3.9°C (25°F) [RH = 75%]
Pressure (altimeter): 29.45 inches Hg (997.4 mb)
Winds: from the SSW (210 degrees) at 6 MPH (5 knots; 2.6 m/s)
Visibility: 7 miles (11 km)
Ceiling: 3700 feet AGL
Clouds: scattered clouds at 2300 feet AGL
broken clouds at 3700 feet AGL
overcast cloud deck at 5500 feet AGL
Weather: -SN  (light snow)

METAR text: PAFA 190056Z 20005KT 5SM -SN BR SCT014 BKN023 BKN032 00/M04 A2945 RMK AO2 P0000 T00001039
Conditions at: PAFA (FAIRBANKS , AK, US) observed 0056 UTC 19 April 2019
Temperature: 0.0°C (32°F)
Dewpoint: -3.9°C (25°F) [RH = 75%]
Pressure (altimeter): 29.45 inches Hg (997.4 mb)
Winds: from the SSW (200 degrees) at 6 MPH (5 knots; 2.6 m/s)
Visibility: 5 miles ( 8 km)
Ceiling: 2300 feet AGL
Clouds: scattered clouds at 1400 feet AGL
broken clouds at 2300 feet AGL
broken clouds at 3200 feet AGL
Weather: -SN BR  (light snow, mist)

METAR text: PAFA 190053Z COR VRB04KT 5SM -SN BR SCT014 BKN023 BKN032 M01/M04 A2945 RMK AO2 TWR VIS 6 SLP983 P0000 T10061039
Conditions at: PAFA (FAIRBANKS , AK, US) observed 0053 UTC 19 April 2019
Temperature: -0.6°C (31°F)
Dewpoint: -3.9°C (25°F) [RH = 78%]
Pressure (altimeter): 29.45 inches Hg (997.4 mb)
[Sea-level pressure:  998.3 mb]
Winds: variable direction winds at 5 MPH (4 knots; 2.1 m/s)
Visibility: 5 miles ( 8 km)
Ceiling: 2300 feet AGL
Clouds: scattered clouds at 1400 feet AGL
broken clouds at 2300 feet AGL
broken clouds at 3200 feet AGL
Weather: -SN BR  (light snow, mist)

METAR text: PAFA 190017Z 23003KT 2SM -SN BR SCT014 BKN023 OVC032 M01/M04 A2946 RMK AO2 P0000 T10061039
Conditions at: PAFA (FAIRBANKS , AK, US) observed 0017 UTC 19 April 2019
Temperature: -0.6°C (31°F)
Dewpoint: -3.9°C (25°F) [RH = 78%]
Pressure (altimeter): 29.46 inches Hg (997.7 mb)
Winds: from the SW (230 degrees) at 3 MPH (3 knots; 1.5 m/s)
Visibility: 2.00 miles (3.22 km)
Ceiling: 2300 feet AGL
Clouds: scattered clouds at 1400 feet AGL
broken clouds at 2300 feet AGL
overcast cloud deck at 3200 feet AGL
Weather: -SN BR  (light snow, mist)

METAR text: PAFA 182353Z 19007KT 1 1/2SM -SN BR SCT014 BKN023 OVC032 M01/M04 A2946 RMK AO2 TWR VIS 2 SLP985 P0002 60007 T10111039 11011 21033 53001
Conditions at: PAFA (FAIRBANKS , AK, US) observed 2353 UTC 18 April 2019
Temperature: -1.1°C (30°F)
Dewpoint: -3.9°C (25°F) [RH = 81%]
Pressure (altimeter): 29.46 inches Hg (997.7 mb)
[Sea-level pressure:  998.5 mb]
Winds: from the S (190 degrees) at 8 MPH (7 knots; 3.6 m/s)
Visibility: 1.50 miles (2.41 km)
Ceiling: 2300 feet AGL
Clouds: scattered clouds at 1400 feet AGL
broken clouds at 2300 feet AGL
overcast cloud deck at 3200 feet AGL
Weather: -SN BR  (light snow, mist)

METAR text: PAFA 182323Z 21004KT 1 1/2SM R02L/5000VP6000FT -SN BR SCT014 BKN023 OVC032 M01/M03 A2946 RMK AO2 TWR VIS 2 P0001 T10111033
Conditions at: PAFA (FAIRBANKS , AK, US) observed 2323 UTC 18 April 2019
Temperature: -1.1°C (30°F)
Dewpoint: -3.3°C (26°F) [RH = 85%]
Pressure (altimeter): 29.46 inches Hg (997.7 mb)
Winds: from the SSW (210 degrees) at 5 MPH (4 knots; 2.1 m/s)
Visibility: 1.50 miles (2.41 km)
Ceiling: 2300 feet AGL
Clouds: scattered clouds at 1400 feet AGL
broken clouds at 2300 feet AGL
overcast cloud deck at 3200 feet AGL
Weather: -SN BR  (light snow, mist)

METAR text: PAFA 182253Z 20005KT 2SM -SN BR SCT014 BKN026 OVC035 M02/M04 A2946 RMK AO2 SLP983 P0000 T10171039
Conditions at: PAFA (FAIRBANKS , AK, US) observed 2253 UTC 18 April 2019
Temperature: -1.7°C (29°F)
Dewpoint: -3.9°C (25°F) [RH = 85%]
Pressure (altimeter): 29.46 inches Hg (997.7 mb)
[Sea-level pressure:  998.3 mb]
Winds: from the SSW (200 degrees) at 6 MPH (5 knots; 2.6 m/s)
Visibility: 2.00 miles (3.22 km)
Ceiling: 2600 feet AGL
Clouds: scattered clouds at 1400 feet AGL
broken clouds at 2600 feet AGL
overcast cloud deck at 3500 feet AGL
Weather: -SN BR  (light snow, mist)

METAR text: PAFA 182226Z 19006KT 2SM -SN BR SCT013 BKN023 OVC035 M02/M04 A2946 RMK AO2 P0000 T10171044
Conditions at: PAFA (FAIRBANKS , AK, US) observed 2226 UTC 18 April 2019
Temperature: -1.7°C (29°F)
Dewpoint: -4.4°C (24°F) [RH = 82%]
Pressure (altimeter): 29.46 inches Hg (997.7 mb)
Winds: from the S (190 degrees) at 7 MPH (6 knots; 3.1 m/s)
Visibility: 2.00 miles (3.22 km)
Ceiling: 2300 feet AGL
Clouds: scattered clouds at 1300 feet AGL
broken clouds at 2300 feet AGL
overcast cloud deck at 3500 feet AGL
Weather: -SN BR  (light snow, mist)

METAR text: PAFA 182153Z 20005KT 3SM -SN BR SCT015 BKN023 OVC042 M02/M05 A2946 RMK AO2 SFC VIS 4 SLP983 P0001 T10171050
Conditions at: PAFA (FAIRBANKS , AK, US) observed 2153 UTC 18 April 2019
Temperature: -1.7°C (29°F)
Dewpoint: -5.0°C (23°F) [RH = 78%]
Pressure (altimeter): 29.46 inches Hg (997.7 mb)
[Sea-level pressure:  998.3 mb]
Winds: from the SSW (200 degrees) at 6 MPH (5 knots; 2.6 m/s)
Visibility: 3 miles ( 5 km)
Ceiling: 2300 feet AGL
Clouds: scattered clouds at 1500 feet AGL
broken clouds at 2300 feet AGL
overcast cloud deck at 4200 feet AGL
Weather: -SN BR  (light snow, mist)

METAR text: PAFA 182115Z 20007KT 3SM -SN BR SCT015 BKN026 OVC040 M02/M05 A2946 RMK AO2 P0000 T10171050
Conditions at: PAFA (FAIRBANKS , AK, US) observed 2115 UTC 18 April 2019
Temperature: -1.7°C (29°F)
Dewpoint: -5.0°C (23°F) [RH = 78%]
Pressure (altimeter): 29.46 inches Hg (997.7 mb)
Winds: from the SSW (200 degrees) at 8 MPH (7 knots; 3.6 m/s)
Visibility: 3 miles ( 5 km)
Ceiling: 2600 feet AGL
Clouds: scattered clouds at 1500 feet AGL
broken clouds at 2600 feet AGL
overcast cloud deck at 4000 feet AGL
Weather: -SN BR  (light snow, mist)

METAR text: PAFA 182053Z 20005KT 2SM -SN BR BKN024 OVC040 M02/M05 A2946 RMK AO2 TWR VIS 3 SLP984 P0001 60004 T10221050 51003
Conditions at: PAFA (FAIRBANKS , AK, US) observed 2053 UTC 18 April 2019
Temperature: -2.2°C (28°F)
Dewpoint: -5.0°C (23°F) [RH = 81%]
Pressure (altimeter): 29.46 inches Hg (997.7 mb)
[Sea-level pressure:  998.4 mb]
Winds: from the SSW (200 degrees) at 6 MPH (5 knots; 2.6 m/s)
Visibility: 2.00 miles (3.22 km)
Ceiling: 2400 feet AGL
Clouds: broken clouds at 2400 feet AGL
overcast cloud deck at 4000 feet AGL
Weather: -SN BR  (light snow, mist)

METAR text: PAFA 181953Z 19007KT 1 1/2SM -SN BR BKN020 OVC034 M03/M06 A2945 RMK AO2 SLP983 P0001 T10281056
Conditions at: PAFA (FAIRBANKS , AK, US) observed 1953 UTC 18 April 2019
Temperature: -2.8°C (27°F)
Dewpoint: -5.6°C (22°F) [RH = 81%]
Pressure (altimeter): 29.45 inches Hg (997.4 mb)
[Sea-level pressure:  998.3 mb]
Winds: from the S (190 degrees) at 8 MPH (7 knots; 3.6 m/s)
Visibility: 1.50 miles (2.41 km)
Ceiling: 2000 feet AGL
Clouds: broken clouds at 2000 feet AGL
overcast cloud deck at 3400 feet AGL
Weather: -SN BR  (light snow, mist)

METAR text: PAFA 181853Z 20006KT 1SM R02L/5500VP6000FT -SN BR BKN018 OVC028 M03/M06 A2945 RMK AO2 SLP982 P0002 T10331056
Conditions at: PAFA (FAIRBANKS , AK, US) observed 1853 UTC 18 April 2019
Temperature: -3.3°C (26°F)
Dewpoint: -5.6°C (22°F) [RH = 84%]
Pressure (altimeter): 29.45 inches Hg (997.4 mb)
[Sea-level pressure:  998.2 mb]
Winds: from the SSW (200 degrees) at 7 MPH (6 knots; 3.1 m/s)
Visibility: 1.00 miles (1.61 km)
Ceiling: 1800 feet AGL
Clouds: broken clouds at 1800 feet AGL
overcast cloud deck at 2800 feet AGL
Weather: -SN BR  (light snow, mist)

METAR text: PAFA 181820Z 21005KT 1 1/2SM R02L/6000VP6000FT -SN BR BKN022 OVC027 M03/M06 A2945 RMK AO2 TWR VIS 2 P0001 T10331056
Conditions at: PAFA (FAIRBANKS , AK, US) observed 1820 UTC 18 April 2019
Temperature: -3.3°C (26°F)
Dewpoint: -5.6°C (22°F) [RH = 84%]
Pressure (altimeter): 29.45 inches Hg (997.4 mb)
Winds: from the SSW (210 degrees) at 6 MPH (5 knots; 2.6 m/s)
Visibility: 1.50 miles (2.41 km)
Ceiling: 2200 feet AGL
Clouds: broken clouds at 2200 feet AGL
overcast cloud deck at 2700 feet AGL
Weather: -SN BR  (light snow, mist)

METAR text: PAFA 181753Z 20006KT 2SM -SN BR BKN022 BKN027 OVC034 M03/M06 A2945 RMK AO2 SNB05 SLP980 P0000 60000 T10281061 11017 21028 55002
Conditions at: PAFA (FAIRBANKS , AK, US) observed 1753 UTC 18 April 2019
Temperature: -2.8°C (27°F)
Dewpoint: -6.1°C (21°F) [RH = 78%]
Pressure (altimeter): 29.45 inches Hg (997.4 mb)
[Sea-level pressure:  998.0 mb]
Winds: from the SSW (200 degrees) at 7 MPH (6 knots; 3.1 m/s)
Visibility: 2.00 miles (3.22 km)
Ceiling: 2200 feet AGL
Clouds: broken clouds at 2200 feet AGL
broken clouds at 2700 feet AGL
overcast cloud deck at 3400 feet AGL
Weather: -SN BR  (light snow, mist)

METAR text: PAFA 181744Z 20006KT 2SM -SN BR BKN022 BKN027 OVC034 M03/M07 A2945 RMK AO2 TWR VIS 3 SNB05 P0000 T10281067
Conditions at: PAFA (FAIRBANKS , AK, US) observed 1744 UTC 18 April 2019
Temperature: -2.8°C (27°F)
Dewpoint: -6.7°C (20°F) [RH = 74%]
Pressure (altimeter): 29.45 inches Hg (997.4 mb)
Winds: from the SSW (200 degrees) at 7 MPH (6 knots; 3.1 m/s)
Visibility: 2.00 miles (3.22 km)
Ceiling: 2200 feet AGL
Clouds: broken clouds at 2200 feet AGL
broken clouds at 2700 feet AGL
overcast cloud deck at 3400 feet AGL
Weather: -SN BR  (light snow, mist)

METAR text: PAFA 181653Z 21004KT 10SM BKN022 OVC026 M02/M08 A2944 RMK AO2 SLP979 T10221078
Conditions at: PAFA (FAIRBANKS , AK, US) observed 1653 UTC 18 April 2019
Temperature: -2.2°C (28°F)
Dewpoint: -7.8°C (18°F) [RH = 65%]
Pressure (altimeter): 29.44 inches Hg (997.0 mb)
[Sea-level pressure:  997.9 mb]
Winds: from the SSW (210 degrees) at 5 MPH (4 knots; 2.1 m/s)
Visibility: 10 or more miles (16+ km)
Ceiling: 2200 feet AGL
Clouds: broken clouds at 2200 feet AGL
overcast cloud deck at 2600 feet AGL
Weather: no significant weather observed at this time

METAR text: PAFA 181553Z 22003KT 10SM BKN022 OVC028 M02/M07 A2945 RMK AO2 SLP980 T10221072
Conditions at: PAFA (FAIRBANKS , AK, US) observed 1553 UTC 18 April 2019
Temperature: -2.2°C (28°F)
Dewpoint: -7.2°C (19°F) [RH = 69%]
Pressure (altimeter): 29.45 inches Hg (997.4 mb)
[Sea-level pressure:  998.0 mb]
Winds: from the SW (220 degrees) at 3 MPH (3 knots; 1.5 m/s)
Visibility: 10 or more miles (16+ km)
Ceiling: 2200 feet AGL
Clouds: broken clouds at 2200 feet AGL
overcast cloud deck at 2800 feet AGL
Weather: no significant weather observed at this time

METAR text: PAFA 181453Z 23003KT 10SM OVC022 M02/M07 A2945 RMK AO2 SNE41 SLP982 P0000 60000 T10221067 58009 $
Conditions at: PAFA (FAIRBANKS , AK, US) observed 1453 UTC 18 April 2019
Temperature: -2.2°C (28°F)
Dewpoint: -6.7°C (20°F) [RH = 71%]
Pressure (altimeter): 29.45 inches Hg (997.4 mb)
[Sea-level pressure:  998.2 mb]
Winds: from the SW (230 degrees) at 3 MPH (3 knots; 1.5 m/s)
Visibility: 10 or more miles (16+ km)
Ceiling: 2200 feet AGL
Clouds: overcast cloud deck at 2200 feet AGL
Weather:
SOME DATA ABOVE MAY BE INACCURATE!!!
"$" is an indication the sensor requires maintenance

METAR text: PAFA 181353Z 00000KT 9SM -SN OVC022 M02/M06 A2946 RMK AO2 SLP985 PCPN VRY LGT P0000 T10171056 $
Conditions at: PAFA (FAIRBANKS , AK, US) observed 1353 UTC 18 April 2019
Temperature: -1.7°C (29°F)
Dewpoint: -5.6°C (22°F) [RH = 75%]
Pressure (altimeter): 29.46 inches Hg (997.7 mb)
[Sea-level pressure:  998.5 mb]
Winds: calm
Visibility: 9 miles (14 km)
Ceiling: 2200 feet AGL
Clouds: overcast cloud deck at 2200 feet AGL
Weather: -SN  (light snow)
SOME DATA ABOVE MAY BE INACCURATE!!!
"$" is an indication the sensor requires maintenance

METAR text: PAFA 181253Z 00000KT 9SM -SN OVC022 M02/M06 A2947 RMK AO2 SLP988 PCPN VRY LGT P0000 T10171056 $
Conditions at: PAFA (FAIRBANKS , AK, US) observed 1253 UTC 18 April 2019
Temperature: -1.7°C (29°F)
Dewpoint: -5.6°C (22°F) [RH = 75%]
Pressure (altimeter): 29.47 inches Hg (998.1 mb)
[Sea-level pressure:  998.8 mb]
Winds: calm
Visibility: 9 miles (14 km)
Ceiling: 2200 feet AGL
Clouds: overcast cloud deck at 2200 feet AGL
Weather: -SN  (light snow)
SOME DATA ABOVE MAY BE INACCURATE!!!
"$" is an indication the sensor requires maintenance

Forecast for: PAFA (FAIRBANKS , AK, US)
Text: PAFA 192323Z 2000/2106 21005KT P6SM VCSH FEW014 BKN024 OVC070
Forecast period: 0000 to 0400 UTC 20 April 2019
Forecast type: FROM: standard forecast or significant change
Winds: from the SSW (210 degrees) at 6 MPH (5 knots; 2.6 m/s)
Visibility: 6 or more miles 10+ km)
Ceiling: 2400 feet AGL
Clouds: few clouds at 1400 feet AGL
broken clouds at 2400 feet AGL
overcast cloud deck at 7000 feet AGL
Weather: VCSH  (showers in vicinity)
Text: TEMPO 2000/2004 2SM -SN BR BKN014 OVC024
Forecast period: 0000 to 0400 UTC 20 April 2019
Forecast type: TEMPORARY: The following changes expected for less than half the time period
Visibility: 2.00 miles (3.22 km)
Ceiling: 1400 feet AGL
Clouds: broken clouds at 1400 feet AGL
overcast cloud deck at 2400 feet AGL
Weather: -SN BR  (light snow, mist)
Text: FM200400 VRB03KT 5SM -SN BR SCT014 BKN024 OVC050
Forecast period: 0400 to 0600 UTC 20 April 2019
Forecast type: FROM: standard forecast or significant change
Winds: variable direction winds at 3 MPH (3 knots; 1.5 m/s)
Visibility: 5 miles (8 km)
Ceiling: 2400 feet AGL
Clouds: scattered clouds at 1400 feet AGL
broken clouds at 2400 feet AGL
overcast cloud deck at 5000 feet AGL
Weather: -SN BR  (light snow, mist)
Text: FM200600 VRB03KT P6SM VCSH FEW025 BKN050 BKN100
Forecast period: 0600 to 2000 UTC 20 April 2019
Forecast type: FROM: standard forecast or significant change
Winds: variable direction winds at 3 MPH (3 knots; 1.5 m/s)
Visibility: 6 or more miles 10+ km)
Ceiling: 5000 feet AGL
Clouds: few clouds at 2500 feet AGL
broken clouds at 5000 feet AGL
broken clouds at 10000 feet AGL
Weather: VCSH  (showers in vicinity)
Text: FM202000 22006KT P6SM FEW050 SCT100 BKN200
Forecast period: 2000 UTC 20 April 2019 to 0600 UTC 21 April 2019
Forecast type: FROM: standard forecast or significant change
Winds: from the SW (220 degrees) at 7 MPH (6 knots; 3.1 m/s)
Visibility: 6 or more miles 10+ km)
Ceiling: 20000 feet AGL
Clouds: few clouds at 5000 feet AGL
scattered clouds at 10000 feet AGL
broken clouds at 20000 feet AGL
Weather: no significant weather forecast for this period